Time;durP1;ratioP1;P1;durP2;ratioP2;P2;SDS_P1;SDS_P2;PMS_P1;PMS_P2;Temp;Humidity;BMP_temperature;BMP_pressure;BME280_temperature;BME280_humidity;BME280_pressure;Samples;Min_cycle;Max_cycle;Signal;HPM_P1;HPM_P2
2022/10/24 05:04:40;;;;;;;10.38;1.88;;;;;;;14.12;97.22;100182.31;4991704;28;20054;-75
2022/10/24 05:07:05;;;;;;;5.60;1.80;;;;;;;14.14;96.57;100181.91;4997861;28;20034;-75
2022/10/24 05:09:31;;;;;;;10.57;2.30;;;;;;;14.11;96.62;100185.56;4995886;28;20048;-75
2022/10/24 05:11:57;;;;;;;5.18;1.95;;;;;;;14.08;98.29;100187.19;5018677;22;20033;-75
2022/10/24 05:14:23;;;;;;;7.72;2.55;;;;;;;14.15;95.99;100181.50;4984085;28;20038;-75
2022/10/24 05:16:48;;;;;;;4.68;2.13;;;;;;;14.13;95.91;100183.94;4985024;28;20042;-75
2022/10/24 05:19:15;;;;;;;5.47;1.60;;;;;;;14.18;95.66;100182.66;4977036;28;20450;-75
2022/10/24 05:21:40;;;;;;;11.88;2.45;;;;;;;14.17;96.03;100183.91;4976647;28;20374;-75
2022/10/24 05:24:06;;;;;;;9.40;1.77;;;;;;;14.25;95.32;100185.38;4987994;28;20038;-75
2022/10/24 05:26:31;;;;;;;14.30;1.77;;;;;;;14.27;95.91;100182.94;4979931;28;20381;-75
2022/10/24 05:28:57;;;;;;;8.75;2.35;;;;;;;14.38;93.48;100180.81;4974286;28;20027;-75
2022/10/24 05:31:22;;;;;;;5.18;1.60;;;;;;;14.36;93.90;100188.88;4977765;28;20034;-75
2022/10/24 05:33:47;;;;;;;4.32;1.50;;;;;;;14.31;94.08;100192.16;4975216;28;20838;-75
2022/10/24 05:36:12;;;;;;;6.25;1.73;;;;;;;14.29;94.56;100188.94;4974043;28;20073;-75
2022/10/24 05:38:38;;;;;;;4.10;1.48;;;;;;;14.28;94.73;100187.38;4976100;28;22418;-74
2022/10/24 05:41:03;;;;;;;10.02;1.90;;;;;;;14.31;94.28;100182.91;4974062;28;20848;-75
2022/10/24 05:43:29;;;;;;;14.20;2.20;;;;;;;14.34;94.39;100182.88;4957654;28;20453;-75
2022/10/24 05:45:54;;;;;;;7.63;1.88;;;;;;;14.30;94.04;100173.69;4975958;28;20038;-75
2022/10/24 05:48:19;;;;;;;8.85;1.92;;;;;;;14.22;95.24;100178.59;4981440;28;20038;-75
2022/10/24 05:50:45;;;;;;;9.82;2.13;;;;;;;14.25;95.19;100185.38;4975327;28;20056;-75
2022/10/24 05:53:11;;;;;;;3.92;1.50;;;;;;;14.14;96.33;100177.06;4976895;28;20560;-75
2022/10/24 05:55:37;;;;;;;9.23;2.33;;;;;;;14.12;96.38;100178.72;4978804;28;20405;-75
2022/10/24 05:58:02;;;;;;;9.20;1.98;;;;;;;14.14;96.44;100174.25;4971071;28;20086;-75
2022/10/24 06:00:27;;;;;;;10.60;2.67;;;;;;;14.16;96.21;100182.28;4982822;28;20477;-75
2022/10/24 06:02:53;;;;;;;3.75;2.17;;;;;;;14.15;96.34;100181.50;4980697;28;20130;-75
2022/10/24 06:05:18;;;;;;;4.97;1.75;;;;;;;14.13;96.79;100171.88;4979398;28;20037;-75
2022/10/24 06:07:44;;;;;;;7.07;1.60;;;;;;;14.11;97.64;100175.09;4984432;28;23374;-75
2022/10/24 06:10:10;;;;;;;5.10;1.73;;;;;;;14.10;98.06;100170.69;4963852;28;20477;-75
2022/10/24 06:12:36;;;;;;;3.72;1.75;;;;;;;14.34;100.00;100170.81;4972885;28;20773;-74
2022/10/24 06:15:03;;;;;;;5.20;2.03;;;;;;;14.27;98.33;100176.53;4981265;28;20117;-74
2022/10/24 06:17:28;;;;;;;9.25;2.53;;;;;;;14.23;96.27;100176.59;4959186;28;20026;-74
2022/10/24 06:19:54;;;;;;;5.20;1.83;;;;;;;14.24;96.90;100178.16;4981706;28;20097;-74
2022/10/24 06:22:22;;;;;;;7.85;1.85;;;;;;;14.22;97.23;100177.78;4980426;28;20041;-75
2022/10/24 06:24:48;;;;;;;8.57;2.10;;;;;;;14.20;97.27;100180.22;4968840;28;20062;-74
2022/10/24 06:27:13;;;;;;;5.45;2.50;;;;;;;14.23;96.66;100182.22;4976490;28;20030;-74
2022/10/24 06:29:38;;;;;;;7.45;2.05;;;;;;;14.21;97.36;100184.66;4972139;28;20069;-74
2022/10/24 06:32:04;;;;;;;6.97;2.38;;;;;;;14.21;96.89;100185.44;4977050;28;20032;-74
2022/10/24 06:34:29;;;;;;;7.55;2.03;;;;;;;14.17;97.26;100179.06;4971033;28;20025;-74
2022/10/24 06:36:55;;;;;;;5.18;2.00;;;;;;;14.16;97.53;100188.69;4969630;28;20058;-74
2022/10/24 06:39:20;;;;;;;11.23;2.88;;;;;;;14.16;97.84;100182.28;4975497;28;20482;-75
2022/10/24 06:41:45;;;;;;;8.20;1.75;;;;;;;14.21;97.20;100187.47;4982467;28;20048;-75
2022/10/24 06:44:11;;;;;;;7.63;2.03;;;;;;;14.23;96.69;100191.44;4977115;28;20030;-75
2022/10/24 06:46:36;;;;;;;6.60;2.22;;;;;;;14.25;97.63;100196.63;4979613;28;20058;-73
2022/10/24 06:49:01;;;;;;;5.80;2.00;;;;;;;14.22;97.75;100191.88;4973787;28;20030;-74
2022/10/24 06:51:27;;;;;;;4.45;1.58;;;;;;;14.22;98.07;100203.13;4973802;28;20053;-74
2022/10/24 06:53:52;;;;;;;9.35;2.05;;;;;;;14.33;96.18;100184.06;4975529;28;20562;-74
2022/10/24 06:56:18;;;;;;;9.32;2.13;;;;;;;14.38;96.56;100191.28;4981811;28;20045;-74
2022/10/24 06:58:43;;;;;;;7.20;2.58;;;;;;;14.37;95.58;100201.72;4982577;28;20037;-75
2022/10/24 07:01:12;;;;;;;9.18;1.83;;;;;;;14.39;95.71;100195.69;4974228;28;20073;-74
2022/10/24 07:03:37;;;;;;;7.75;1.80;;;;;;;14.35;96.89;100201.34;4963410;28;20030;-74
2022/10/24 07:06:08;;;;;;;4.43;2.10;;;;;;;14.46;95.78;100200.44;4974328;28;20089;-74
2022/10/24 07:08:33;;;;;;;5.43;1.70;;;;;;;14.47;95.62;100214.09;4979362;28;20037;-74
2022/10/24 07:10:59;;;;;;;5.38;1.80;;;;;;;14.52;95.23;100207.97;4977480;28;20030;-74
2022/10/24 07:13:24;;;;;;;7.55;2.63;;;;;;;14.49;95.68;100200.38;4977605;28;20074;-74
2022/10/24 07:15:53;;;;;;;4.93;1.80;;;;;;;14.44;96.76;100203.66;4982637;28;20366;-74
2022/10/24 07:18:18;;;;;;;14.73;2.25;;;;;;;14.58;94.62;100211.16;4975885;28;20038;-74
2022/10/24 07:20:45;;;;;;;8.38;2.10;;;;;;;14.53;95.95;100214.44;4981093;28;20489;-75
2022/10/24 07:23:10;;;;;;;8.55;2.22;;;;;;;14.61;94.91;100211.13;4975248;28;20461;-75
2022/10/24 07:25:38;;;;;;;6.63;1.90;;;;;;;14.57;96.18;100218.03;4977176;28;20042;-74
2022/10/24 07:28:03;;;;;;;8.38;2.05;;;;;;;14.51;96.17;100214.06;4981931;28;20750;-74
2022/10/24 07:30:28;;;;;;;5.50;1.70;;;;;;;14.63;95.16;100221.97;4982363;28;20038;-74
2022/10/24 07:32:54;;;;;;;6.97;2.10;;;;;;;14.70;95.10;100238.00;4982283;28;20027;-74
2022/10/24 07:35:20;;;;;;;4.78;1.98;;;;;;;14.73;94.81;100231.50;4970914;28;20028;-75
2022/10/24 07:37:45;;;;;;;14.88;3.40;;;;;;;14.78;93.77;100229.03;4983938;28;20034;-75
2022/10/24 07:40:11;;;;;;;11.57;2.13;;;;;;;14.79;94.19;100236.22;4957606;28;20546;-75
2022/10/24 07:42:37;;;;;;;9.43;2.33;;;;;;;14.88;92.55;100223.66;4967169;28;20558;-74
2022/10/24 07:45:03;;;;;;;5.10;1.67;;;;;;;14.84;94.01;100227.34;4988134;28;20120;-74
2022/10/24 07:47:28;;;;;;;7.93;2.25;;;;;;;14.91;91.99;100226.44;4986646;28;20477;-75
2022/10/24 07:49:54;;;;;;;6.43;1.88;;;;;;;15.08;92.01;100235.06;4984310;28;20054;-75
2022/10/24 07:52:19;;;;;;;11.70;2.50;;;;;;;15.09;92.31;100231.78;4983702;28;20040;-74
2022/10/24 07:54:45;;;;;;;6.63;2.22;;;;;;;14.97;93.31;100238.81;4983138;28;20470;-75
2022/10/24 07:57:10;;;;;;;7.80;2.75;;;;;;;15.20;91.64;100237.28;4983267;28;20046;-75
2022/10/24 07:59:36;;;;;;;10.38;2.47;;;;;;;15.27;90.53;100233.56;4959527;28;20458;-74
2022/10/24 08:02:01;;;;;;;5.78;1.42;;;;;;;15.02;93.30;100237.56;4983597;28;20037;-75
2022/10/24 08:04:27;;;;;;;6.40;1.60;;;;;;;15.20;90.31;100238.09;4982551;28;20110;-74
2022/10/24 08:06:53;;;;;;;9.10;1.60;;;;;;;15.27;90.56;100245.66;4968103;28;20034;-75
2022/10/24 08:09:19;;;;;;;4.72;1.63;;;;;;;15.29;90.07;100239.59;4992067;28;20044;-75
2022/10/24 08:11:45;;;;;;;11.73;2.38;;;;;;;15.27;90.98;100230.75;4983108;28;20031;-75
2022/10/24 08:14:10;;;;;;;7.05;2.42;;;;;;;15.25;90.30;100229.16;4981239;28;20650;-74
2022/10/24 08:16:37;;;;;;;8.65;1.85;;;;;;;15.22;90.69;100241.28;4982151;28;20034;-74
2022/10/24 08:19:02;;;;;;;7.30;1.70;;;;;;;15.38;90.66;100243.44;4978724;28;20078;-74
2022/10/24 08:21:30;;;;;;;13.40;1.95;;;;;;;15.43;90.44;100242.16;4981325;28;20067;-74
2022/10/24 08:23:55;;;;;;;6.57;1.10;;;;;;;15.49;90.69;100248.91;4981484;28;20034;-74
2022/10/24 08:26:24;;;;;;;6.53;1.65;;;;;;;15.71;88.13;100251.41;4964128;28;20402;-74
2022/10/24 08:28:49;;;;;;;11.85;2.33;;;;;;;15.60;87.79;100238.28;4982363;28;20041;-74
2022/10/24 08:31:18;;;;;;;13.02;2.80;;;;;;;15.67;86.68;100253.50;4960188;28;20484;-74
2022/10/24 08:33:44;;;;;;;5.85;1.33;;;;;;;15.55;88.71;100233.09;4971006;28;20031;-74
2022/10/24 08:36:22;;;;;;;14.07;2.10;;;;;;;15.47;88.55;100259.81;4960081;28;21281;-74
2022/10/24 08:38:48;;;;;;;8.80;2.40;;;;;;;15.52;87.90;100259.38;4979734;28;20440;-74
2022/10/24 08:41:42;;;;;;;8.43;2.42;;;;;;;15.56;88.46;100256.50;4977209;28;20038;-74
2022/10/24 08:44:53;;;;;;;9.27;3.03;;;;;;;15.53;87.81;100260.94;4986478;28;20041;-74
2022/10/24 08:47:36;;;;;;;9.30;1.98;;;;;;;15.59;87.83;100259.22;4976106;28;20179;-74
2022/10/24 08:50:25;;;;;;;9.52;1.80;;;;;;;15.73;86.26;100268.75;4974903;28;20117;-74
2022/10/24 08:53:02;;;;;;;10.70;2.13;;;;;;;15.65;87.33;100263.16;5000703;28;20513;-74
2022/10/24 08:55:36;;;;;;;7.72;1.90;;;;;;;15.71;88.46;100266.31;4977482;28;20388;-74
2022/10/24 08:58:03;;;;;;;15.88;4.03;;;;;;;15.74;88.04;100270.31;4980900;28;20034;-74
2022/10/24 09:00:39;;;;;;;13.43;3.95;;;;;;;15.86;86.49;100275.38;4989510;28;20041;-74
2022/10/24 09:03:13;;;;;;;7.40;1.80;;;;;;;15.74;86.51;100273.16;4972785;28;20030;-74
2022/10/24 09:05:47;;;;;;;9.30;2.10;;;;;;;15.64;89.00;100272.88;4998025;28;20045;-74
2022/10/24 09:08:23;;;;;;;8.02;1.92;;;;;;;15.50;88.78;100287.19;4981853;28;20069;-74
2022/10/24 09:10:56;;;;;;;9.75;1.90;;;;;;;15.50;90.07;100284.38;4996740;28;20367;-74
2022/10/24 09:13:22;;;;;;;5.63;1.40;;;;;;;15.57;89.71;100298.34;4997975;28;20056;-74
2022/10/24 09:15:48;;;;;;;11.65;2.67;;;;;;;15.52;90.42;100292.41;4978906;28;20029;-74
2022/10/24 09:18:26;;;;;;;13.32;1.45;;;;;;;15.69;87.92;100304.66;4996599;28;20105;-74
2022/10/24 09:20:52;;;;;;;9.05;2.47;;;;;;;15.67;88.66;100307.09;4997699;28;20053;-74
2022/10/24 09:23:20;;;;;;;9.80;1.63;;;;;;;15.64;88.86;100295.44;5003967;28;20539;-73
2022/10/24 09:25:52;;;;;;;8.00;3.40;;;;;;;15.51;90.66;100302.88;4995523;28;20100;-74
2022/10/24 09:28:18;;;;;;;7.50;2.30;;;;;;;15.53;90.68;100308.91;4998779;28;20055;-74
2022/10/24 09:30:43;;;;;;;8.60;2.03;;;;;;;15.56;90.54;100299.59;5000978;28;20390;-74
2022/10/24 09:33:33;;;;;;;7.38;1.70;;;;;;;15.64;89.43;100303.91;4983292;28;20029;-74
2022/10/24 09:36:03;;;;;;;4.85;1.50;;;;;;;15.55;90.77;100314.91;4999307;28;20081;-74
2022/10/24 09:38:32;;;;;;;10.50;1.88;;;;;;;15.48;92.12;100331.94;5003861;28;20695;-74
2022/10/24 09:41:06;;;;;;;10.13;2.30;;;;;;;15.38;92.91;100327.25;5002300;28;20444;-74
2022/10/24 09:43:46;;;;;;;12.52;2.13;;;;;;;15.22;95.83;100337.16;4999990;28;21654;-74
2022/10/24 09:46:14;;;;;;;10.10;2.63;;;;;;;14.96;100.00;100355.56;5001127;28;20038;-74
2022/10/24 09:48:56;;;;;;;10.68;2.10;;;;;;;14.82;100.00;100348.09;5001551;28;20038;-73
2022/10/24 09:51:40;;;;;;;8.43;1.70;;;;;;;14.70;100.00;100351.47;4995195;28;20084;-74
2022/10/24 09:54:18;;;;;;;10.27;1.83;;;;;;;14.63;100.00;100351.53;5000931;28;20493;-74
2022/10/24 09:56:58;;;;;;;14.48;2.80;;;;;;;14.66;100.00;100349.91;5003258;28;20397;-74
2022/10/24 09:59:34;;;;;;;7.78;2.47;;;;;;;14.68;100.00;100348.25;5004449;28;20033;-74
2022/10/24 10:02:18;;;;;;;11.43;2.92;;;;;;;14.76;100.00;100374.34;4982368;28;20140;-74
2022/10/24 10:04:46;;;;;;;5.65;2.05;;;;;;;14.82;100.00;100372.66;4999455;28;20038;-74
2022/10/24 10:07:24;;;;;;;8.18;2.08;;;;;;;14.82;100.00;100370.66;4987799;28;20033;-74
2022/10/24 10:09:57;;;;;;;5.78;1.98;;;;;;;14.81;100.00;100371.84;5003781;28;20084;-74
2022/10/24 10:12:35;;;;;;;10.23;1.88;;;;;;;14.93;100.00;100378.19;4995826;28;20394;-74
2022/10/24 10:15:26;;;;;;;8.35;1.92;;;;;;;15.02;100.00;100378.47;5000441;28;20085;-74
2022/10/24 10:17:58;;;;;;;10.98;2.08;;;;;;;15.19;100.00;100385.91;4997279;28;20512;-74
2022/10/24 10:20:30;;;;;;;8.32;2.50;;;;;;;15.28;100.00;100390.22;4998785;28;20032;-74
2022/10/24 10:23:15;;;;;;;6.30;2.83;;;;;;;15.37;100.00;100393.34;5008699;28;20034;-74
2022/10/24 10:25:40;;;;;;;9.35;1.95;;;;;;;15.37;100.00;100393.34;4999668;28;20022;-74
2022/10/24 10:28:18;;;;;;;7.80;1.70;;;;;;;15.55;98.51;100393.88;4993890;28;20074;-74
2022/10/24 10:30:54;;;;;;;6.72;1.83;;;;;;;15.44;99.24;100398.88;5001140;28;20021;-74
2022/10/24 10:33:35;;;;;;;6.78;1.75;;;;;;;15.43;99.02;100402.91;5003629;28;20034;-74
2022/10/24 10:36:00;;;;;;;6.10;1.90;;;;;;;15.51;96.73;100410.06;5008371;28;20036;-74
2022/10/24 10:39:04;;;;;;;8.90;1.63;;;;;;;15.61;97.10;100403.47;5003814;28;20026;-74
2022/10/24 10:41:51;;;;;;;6.90;1.70;;;;;;;15.59;95.28;100408.75;4993383;28;20038;-74
2022/10/24 10:44:44;;;;;;;11.10;2.03;;;;;;;15.64;95.48;100408.28;5005866;28;20029;-74
2022/10/24 10:47:34;;;;;;;6.75;1.48;;;;;;;15.59;94.37;100416.41;5005076;28;20053;-74
2022/10/24 10:50:07;;;;;;;5.93;1.30;;;;;;;15.57;95.67;100408.38;5007939;28;20041;-74
2022/10/24 10:52:53;;;;;;;5.30;1.95;;;;;;;15.69;93.09;100414.69;5009431;28;20018;-74
2022/10/24 10:55:27;;;;;;;4.93;2.10;;;;;;;15.76;90.83;100418.22;5009365;28;20109;-74
2022/10/24 10:58:03;;;;;;;7.07;1.80;;;;;;;15.89;91.12;100423.28;4997876;28;20033;-75
2022/10/24 11:00:53;;;;;;;5.38;1.88;;;;;;;15.94;89.51;100417.97;4983847;28;20481;-75
2022/10/24 11:03:33;;;;;;;7.65;1.50;;;;;;;15.77;93.11;100427.47;4999228;28;20040;-75
2022/10/24 11:06:25;;;;;;;4.30;1.30;;;;;;;15.90;91.05;100430.53;4999339;28;20424;-74
2022/10/24 11:08:56;;;;;;;3.75;1.52;;;;;;;15.93;89.28;100426.84;4991646;28;20038;-74
2022/10/24 11:11:31;;;;;;;3.22;1.52;;;;;;;16.11;88.82;100430.22;4999658;28;20018;-74
2022/10/24 11:14:27;;;;;;;5.40;1.55;;;;;;;16.10;89.53;100436.28;4984054;28;20046;-74
2022/10/24 11:17:15;;;;;;;3.22;1.35;;;;;;;15.98;89.57;100444.13;4991178;28;20034;-74
2022/10/24 11:20:09;;;;;;;4.97;1.10;;;;;;;15.89;89.10;100446.66;4976783;28;20053;-74
2022/10/24 11:22:45;;;;;;;6.15;2.00;;;;;;;15.75;90.30;100452.53;5000925;28;20073;-74
2022/10/24 11:25:19;;;;;;;7.35;1.88;;;;;;;15.62;92.17;100457.88;4986029;28;20033;-74
2022/10/24 11:27:53;;;;;;;6.28;1.50;;;;;;;15.70;90.23;100461.41;4970857;28;20022;-74
2022/10/24 11:30:20;;;;;;;4.63;1.83;;;;;;;15.70;90.31;100456.56;4983756;28;20089;-75
2022/10/24 11:32:57;;;;;;;5.88;1.65;;;;;;;15.75;91.46;100470.25;4995339;28;20026;-74
2022/10/24 11:35:36;;;;;;;7.97;2.08;;;;;;;15.74;90.09;100470.66;4995765;28;20480;-74
2022/10/24 11:38:08;;;;;;;7.45;1.45;;;;;;;15.78;90.31;100479.88;4997740;28;22857;-74
2022/10/24 11:40:34;;;;;;;4.38;1.58;;;;;;;15.74;89.27;100474.28;4994996;28;20101;-74
2022/10/24 11:43:26;;;;;;;3.83;1.48;;;;;;;15.68;89.92;100477.97;4990447;28;20037;-74
2022/10/24 11:46:16;;;;;;;4.80;1.52;;;;;;;15.71;89.40;100483.56;4997049;28;20029;-74
2022/10/24 11:48:55;;;;;;;6.10;1.50;;;;;;;15.70;90.49;100481.16;4992622;28;20049;-74
2022/10/24 11:51:39;;;;;;;6.70;1.40;;;;;;;15.72;88.62;100475.94;4998850;28;20557;-74
2022/10/24 11:54:29;;;;;;;11.38;2.38;;;;;;;15.77;88.74;100478.25;4999698;28;20038;-74
2022/10/24 11:57:07;;;;;;;7.05;2.30;;;;;;;15.74;88.26;100485.56;4994450;28;20495;-74
2022/10/24 11:59:32;;;;;;;7.47;1.35;;;;;;;15.76;90.55;100494.41;4999483;28;20033;-74
2022/10/24 12:02:28;;;;;;;6.43;1.48;;;;;;;15.78;92.34;100485.53;4995566;28;20086;-74
2022/10/24 12:05:18;;;;;;;5.25;1.40;;;;;;;15.77;91.02;100498.00;4998797;28;20698;-74
2022/10/24 12:08:01;;;;;;;8.52;1.67;;;;;;;15.74;89.65;100493.22;5000292;28;20026;-74
2022/10/24 12:10:43;;;;;;;4.70;1.35;;;;;;;15.77;91.19;100503.66;4998953;28;20172;-75
2022/10/24 12:13:22;;;;;;;4.35;1.52;;;;;;;15.81;88.56;100502.41;4996881;28;20129;-74
2022/10/24 12:16:17;;;;;;;6.05;1.30;;;;;;;15.86;87.71;100498.31;4997441;28;20031;-75
2022/10/24 12:18:46;;;;;;;9.50;1.55;;;;;;;15.97;87.43;100518.72;4989531;28;20025;-74
2022/10/24 12:21:16;;;;;;;5.78;1.23;;;;;;;15.98;88.94;100506.22;4976835;28;20382;-75
2022/10/24 12:23:52;;;;;;;7.18;1.48;;;;;;;15.98;85.16;100517.50;4997144;28;20056;-75
2022/10/24 12:26:23;;;;;;;5.43;1.45;;;;;;;15.88;89.27;100512.81;4994782;28;20117;-75
2022/10/24 12:28:53;;;;;;;4.20;1.30;;;;;;;15.85;85.44;100519.28;4993406;28;20029;-74
2022/10/24 12:31:21;;;;;;;6.70;1.83;;;;;;;15.75;87.21;100518.22;4996146;28;20030;-75
2022/10/24 12:34:15;;;;;;;6.43;1.40;;;;;;;15.70;88.66;100518.63;4996037;28;20048;-75
2022/10/24 12:37:02;;;;;;;5.18;1.60;;;;;;;15.77;87.79;100523.41;4998356;28;20025;-75
2022/10/24 12:39:33;;;;;;;8.10;1.52;;;;;;;15.67;92.16;100518.69;4997101;28;20446;-75
2022/10/24 12:41:59;;;;;;;4.55;1.30;;;;;;;15.71;89.16;100525.09;4996640;28;20274;-75
2022/10/24 12:44:46;;;;;;;5.72;1.55;;;;;;;15.71;90.51;100530.75;4995614;28;20037;-75
2022/10/24 12:47:32;;;;;;;6.05;1.58;;;;;;;15.63;91.15;100546.94;4976906;28;20100;-75
2022/10/24 12:50:20;;;;;;;5.45;1.23;;;;;;;15.60;93.17;100548.59;4998014;28;20041;-75
2022/10/24 12:52:46;;;;;;;6.05;1.38;;;;;;;15.53;92.67;100543.00;4996507;28;20037;-75
2022/10/24 12:55:36;;;;;;;8.02;1.70;;;;;;;15.54;92.41;100557.94;4994775;28;20029;-75
2022/10/24 12:58:29;;;;;;;3.45;1.38;;;;;;;15.52;92.15;100552.72;4997586;28;20065;-75
2022/10/24 13:00:56;;;;;;;;;;;;;;;15.54;90.63;100555.13;4995875;28;20450;-74
2022/10/24 13:03:30;;;;;;;3.35;1.35;;;;;;;15.53;92.17;100545.03;4993913;28;20015;-74
2022/10/24 13:06:22;;;;;;;6.60;1.08;;;;;;;15.52;93.92;100546.28;4991424;28;20104;-74
2022/10/24 13:09:13;;;;;;;4.40;1.35;;;;;;;15.52;92.78;100564.00;4994417;28;20342;-74
2022/10/24 13:12:03;;;;;;;7.93;3.05;;;;;;;15.55;92.15;100562.34;4996678;28;20028;-75
2022/10/24 13:15:00;;;;;;;3.22;1.30;;;;;;;15.58;93.61;100545.38;4980276;28;20046;-74
2022/10/24 13:17:42;;;;;;;4.60;1.90;;;;;;;15.55;92.03;100551.06;4981226;28;20082;-76
2022/10/24 13:20:27;;;;;;;4.47;1.73;;;;;;;15.51;91.74;100556.75;4980523;28;20022;-75
2022/10/24 13:23:02;;;;;;;5.30;1.35;;;;;;;15.49;93.02;100558.38;4981208;28;20042;-75
2022/10/24 13:25:36;;;;;;;4.85;1.83;;;;;;;15.46;93.98;100565.66;4977760;28;20045;-75
2022/10/24 13:28:23;;;;;;;5.65;1.83;;;;;;;15.44;92.90;100565.28;4980818;28;20038;-75
2022/10/24 13:30:55;;;;;;;5.60;2.03;;;;;;;15.53;94.43;100571.22;4989189;28;20355;-75
2022/10/24 13:33:29;;;;;;;7.45;1.30;;;;;;;15.51;93.80;100565.19;4989254;28;20026;-76
2022/10/24 13:36:16;;;;;;;6.55;1.67;;;;;;;15.57;95.03;100560.69;4987434;28;20018;-76
2022/10/24 13:38:55;;;;;;;9.63;1.58;;;;;;;15.56;94.75;100563.97;4992039;28;20026;-75
2022/10/24 13:41:45;;;;;;;5.28;1.40;;;;;;;15.52;94.68;100563.19;4991668;28;20041;-75
2022/10/24 13:44:10;;;;;;;8.13;1.67;;;;;;;15.47;95.99;100567.25;4984854;28;20033;-75
2022/10/24 13:46:43;;;;;;;4.60;1.70;;;;;;;15.38;96.68;100567.75;4975151;28;20427;-75
2022/10/24 13:49:20;;;;;;;4.80;2.38;;;;;;;15.40;96.63;100567.34;4981152;28;20073;-75
2022/10/24 13:51:51;;;;;;;7.15;2.55;;;;;;;15.40;95.83;100573.00;4986860;28;20536;-76
2022/10/24 13:54:27;;;;;;;6.97;2.08;;;;;;;15.40;94.94;100578.63;4991530;28;20484;-75
2022/10/24 13:56:52;;;;;;;6.20;1.77;;;;;;;15.36;97.13;100572.22;4986778;28;20512;-75
2022/10/24 13:59:37;;;;;;;4.68;1.70;;;;;;;15.36;95.03;100572.22;4984174;28;20050;-76
2022/10/24 14:02:20;;;;;;;7.47;2.25;;;;;;;15.36;96.48;100575.03;4966094;28;20454;-75
2022/10/24 14:04:47;;;;;;;7.63;2.00;;;;;;;15.36;94.83;100573.00;4985695;28;20028;-75
2022/10/24 14:07:20;;;;;;;7.13;1.77;;;;;;;15.37;97.73;100579.47;4988895;28;20117;-76
2022/10/24 14:09:53;;;;;;;7.32;1.77;;;;;;;15.32;95.76;100588.38;4985620;28;20041;-75
2022/10/24 14:12:22;;;;;;;7.97;1.70;;;;;;;15.32;97.06;100588.38;4965913;28;20736;-76
2022/10/24 14:14:49;;;;;;;4.35;1.60;;;;;;;15.32;99.98;100599.66;5002603;28;20034;-75
2022/10/24 14:17:25;;;;;;;5.25;2.05;;;;;;;15.15;100.00;100602.22;4999787;28;20061;-75
2022/10/24 14:19:54;;;;;;;3.30;1.55;;;;;;;15.03;100.00;100599.91;5005642;28;20037;-75
2022/10/24 14:22:24;;;;;;;8.63;1.77;;;;;;;15.01;100.00;100605.16;5010104;28;20033;-75
2022/10/24 14:24:49;;;;;;;9.38;2.47;;;;;;;14.96;100.00;100592.31;5005177;28;20029;-75
2022/10/24 14:27:17;;;;;;;3.10;1.50;;;;;;;14.88;100.00;100596.41;5007506;28;20503;-75
2022/10/24 14:29:56;;;;;;;4.45;1.67;;;;;;;14.83;100.00;100592.00;5003958;28;20041;-75
2022/10/24 14:32:23;;;;;;;5.45;1.75;;;;;;;14.89;100.00;100588.75;5006427;28;20034;-75
2022/10/24 14:34:49;;;;;;;4.65;1.85;;;;;;;14.76;100.00;100594.88;5010716;28;20037;-75
2022/10/24 14:37:26;;;;;;;4.50;1.48;;;;;;;14.80;100.00;100595.66;5006073;28;20045;-75
2022/10/24 14:39:52;;;;;;;5.85;2.10;;;;;;;14.68;100.00;100590.53;5003578;28;20034;-75
2022/10/24 14:42:17;;;;;;;6.20;2.45;;;;;;;14.57;100.00;100601.06;4990869;28;20608;-75
2022/10/24 14:44:45;;;;;;;3.80;1.85;;;;;;;14.60;100.00;100603.03;4998029;28;20047;-75
2022/10/24 14:47:28;;;;;;;3.28;1.77;;;;;;;14.60;100.00;100606.66;4999537;28;20457;-75
2022/10/24 14:49:53;;;;;;;7.85;2.20;;;;;;;14.58;100.00;100608.28;4988056;28;20404;-75
2022/10/24 14:52:28;;;;;;;8.10;2.10;;;;;;;14.60;100.00;100605.88;5001245;28;20044;-75
2022/10/24 14:54:57;;;;;;;4.13;1.90;;;;;;;14.60;100.00;100600.22;4993037;28;20505;-75
2022/10/24 14:57:23;;;;;;;5.78;1.83;;;;;;;14.70;100.00;100609.84;4991014;28;20030;-75
2022/10/24 14:59:51;;;;;;;4.70;2.10;;;;;;;14.68;100.00;100604.59;4982875;28;21317;-75
2022/10/24 15:02:28;;;;;;;6.75;2.40;;;;;;;14.67;100.00;100605.00;4992050;28;20529;-75
2022/10/24 15:05:18;;;;;;;4.55;2.13;;;;;;;14.58;100.00;100619.56;4994962;28;20029;-75
2022/10/24 15:07:45;;;;;;;4.55;2.13;;;;;;;14.56;100.00;100611.50;4996657;28;20047;-75
2022/10/24 15:10:10;;;;;;;5.55;2.33;;;;;;;14.56;100.00;100619.16;4982305;28;20121;-75
2022/10/24 15:12:40;;;;;;;8.00;2.53;;;;;;;14.50;100.00;100620.78;4989773;28;20852;-75
2022/10/24 15:15:26;;;;;;;7.10;2.40;;;;;;;14.47;100.00;100630.06;4995494;28;20516;-75
2022/10/24 15:17:57;;;;;;;6.95;2.60;;;;;;;14.51;100.00;100620.38;4995051;28;20453;-75
2022/10/24 15:20:28;;;;;;;7.90;2.38;;;;;;;14.46;100.00;100620.00;4975797;28;20092;-75
2022/10/24 15:22:59;;;;;;;5.53;2.08;;;;;;;14.46;100.00;100634.06;4996860;28;20041;-76
2022/10/24 15:25:32;;;;;;;4.65;2.15;;;;;;;14.47;100.00;100630.06;4988805;28;20492;-75
2022/10/24 15:27:58;;;;;;;6.38;2.78;;;;;;;14.43;100.00;100625.22;4978127;28;20053;-75
2022/10/24 15:30:26;;;;;;;7.15;2.28;;;;;;;14.48;100.00;100631.66;4999719;28;20038;-74
2022/10/24 15:32:54;;;;;;;13.38;4.43;;;;;;;14.46;100.00;100634.88;4996355;28;20397;-76
2022/10/24 15:35:20;;;;;;;6.75;2.92;;;;;;;14.39;100.00;100634.91;4998441;28;20076;-75
2022/10/24 15:38:03;;;;;;;11.23;3.05;;;;;;;14.34;100.00;100633.34;5000262;28;20030;-75
2022/10/24 15:40:32;;;;;;;14.32;3.10;;;;;;;14.28;100.00;100634.97;5000107;28;20125;-75
2022/10/24 15:42:59;;;;;;;6.82;2.95;;;;;;;14.39;100.00;100629.28;4995723;28;20048;-75
2022/10/24 15:45:25;;;;;;;6.32;2.67;;;;;;;14.33;100.00;100636.56;5001029;28;20505;-75
2022/10/24 15:47:51;;;;;;;9.68;3.42;;;;;;;14.22;100.00;100636.63;5004673;28;20037;-75
2022/10/24 15:50:20;;;;;;;8.43;2.65;;;;;;;14.25;100.00;100635.78;4984803;28;20041;-75
2022/10/24 15:52:50;;;;;;;8.40;2.67;;;;;;;14.32;100.00;100635.75;4995211;28;20077;-75
2022/10/24 15:55:18;;;;;;;8.32;2.92;;;;;;;14.28;100.00;100639.81;4985403;28;20049;-75
2022/10/24 15:57:45;;;;;;;7.15;2.55;;;;;;;14.24;100.00;100646.25;4980060;28;20071;-75
2022/10/24 16:00:12;;;;;;;8.52;3.22;;;;;;;14.22;100.00;100648.66;5000147;28;20029;-75
2022/10/24 16:02:39;;;;;;;9.98;2.92;;;;;;;14.19;100.00;100649.50;5004779;28;20037;-75
2022/10/24 16:05:05;;;;;;;8.05;3.08;;;;;;;14.27;100.00;100652.28;5001354;28;20034;-75
2022/10/24 16:07:30;;;;;;;7.85;2.70;;;;;;;14.18;100.00;100653.50;5000923;28;20045;-75
2022/10/24 16:09:56;;;;;;;7.65;2.92;;;;;;;14.29;100.00;100653.47;5001058;28;20442;-75
2022/10/24 16:12:21;;;;;;;7.32;2.67;;;;;;;14.32;100.00;100661.09;5003029;28;20617;-75
2022/10/24 16:14:46;;;;;;;15.00;4.28;;;;;;;14.26;100.00;100665.56;5000466;28;20061;-75
2022/10/24 16:17:11;;;;;;;10.90;3.90;;;;;;;14.37;100.00;100665.50;4985791;28;20095;-75
2022/10/24 16:19:37;;;;;;;6.78;3.00;;;;;;;14.19;100.00;100659.97;4996299;28;20113;-75
2022/10/24 16:22:02;;;;;;;8.40;3.42;;;;;;;14.14;100.00;100669.59;5001446;28;20034;-75
2022/10/24 16:24:28;;;;;;;8.55;4.30;;;;;;;14.15;100.00;100673.25;4979952;28;20035;-74
2022/10/24 16:26:53;;;;;;;16.17;4.63;;;;;;;14.14;100.00;100677.25;4976152;28;20045;-75
2022/10/24 16:29:19;;;;;;;7.25;2.95;;;;;;;14.18;100.00;100683.69;5001423;28;20103;-75
2022/10/24 16:31:45;;;;;;;12.15;4.20;;;;;;;14.20;100.00;100678.44;4995832;28;20470;-75
2022/10/24 16:34:11;;;;;;;8.40;4.22;;;;;;;14.19;100.00;100674.03;4998390;28;20052;-75
2022/10/24 16:36:39;;;;;;;11.27;4.13;;;;;;;13.87;100.00;100679.75;4998790;28;20470;-75
2022/10/24 16:39:05;;;;;;;14.85;4.55;;;;;;;13.91;100.00;100678.53;4998498;28;20485;-75
2022/10/24 16:41:31;;;;;;;8.05;4.53;;;;;;;13.82;100.00;100686.59;4999677;28;20469;-74
2022/10/24 16:43:56;;;;;;;8.10;3.90;;;;;;;13.89;100.00;100685.75;4994558;28;20034;-75
2022/10/24 16:46:23;;;;;;;7.63;3.28;;;;;;;13.89;100.00;100691.41;5001185;28;20457;-75
2022/10/24 16:48:49;;;;;;;15.43;4.07;;;;;;;13.98;100.00;100694.59;4997273;28;20023;-75